Detall de PIREP

Printer-friendly versionPDF version

[2011/08/13 19:29:00]
Flight IATA:CT1003
Pilot Number:026
Company ICAO:CAT
Aircraft Type:DC85/A
PAX:132
Departing Airport: LKPR
Destination Airport: LIEA
Alternate Airport:LIEO
Online: VATSIM
Route:DOBEN UT255 CERNO UP31 VIBUG UM736 LIZUM UN503 VIC UL12 ELB UZ254 OKIDO UZ347 MINKA
Flight Level:F350
No Slew and time accel
No pause
Crash detect
Detect pilot in Cockpit between each 30 and 45 minutes
19:29 Zero fuel Weight: 180121 Lbs, Fuel Weight: 32021 Lbs
19:29 VATSIM:LKPR 131900Z 14005KT 9999 FEW040 18/15 Q1012 NOSIG
19:29 VATSIM:LIEA 131850Z 32003KT CAVOK 23/18 Q1011
19:29 VOICE CATALONIAN / CPT LKPR
19:50 Parking Brakes off
20:05 Take-off
20:05 Take off Weight: 210922 Lbs
20:05 Wind: 149º @ 004 Knots Heading: 243º
20:05 POS N50º 06´ 25´´ E014º 14´ 36´´
20:05 Gear Up: 162 Knots
20:05 Flaps:3 at 162 Knots
20:05 Flaps:2 at 153 Knots
20:07 Flaps:1 at 191 Knots
20:08 Flaps:0 at 198 Knots
20:20 Wind:163º@015 Knots Heading: 174º Ground Speed: 413 Knots Altitude 23467 ft
20:28 TOC
20:28 Fuel Weight: 24041 Lb
20:35 Wind:163º@015 Knots Heading: 207º Ground Speed: 462 Knots Altitude 34960 ft
20:50 Wind:163º@015 Knots Heading: 181º Ground Speed: 463 Knots Altitude 34960 ft
21:05 Wind:163º@015 Knots Heading: 182º Ground Speed: 469 Knots Altitude 34960 ft
21:20 Wind:163º@015 Knots Heading: 197º Ground Speed: 471 Knots Altitude 34960 ft
21:26 TOD
21:26 Fuel Weight: 11884 Lb
21:35 Wind:163º@014 Knots Heading: 192º Ground Speed: 432 Knots Altitude 22595 ft
21:50 Wind:163º@008 Knots Heading: 259º Ground Speed: 281 Knots Altitude 7949 ft
21:52 Gear Down: 230 Knots
21:52 Flaps:1 at 224 Knots
21:54 Flaps:2 at 135 Knots
21:54 Flaps:3 at 151 Knots
21:55 Flaps:4 at 159 Knots
21:56 Flaps:5 at 138 Knots
21:56 TouchDown:Rate -238 ft/min Speed: 128 Knots
21:56 VATSIM:LIEA 132120Z VRB01KT CAVOK 20/17 Q1012
21:56 Land
21:56 Wind:163º@004 Knots
21:56 Heading: 203º
21:56 Flight Duration: 01:51
21:56 Landing Weight: 188135 Lbs
21:56 POS N40º 37´ 51´´ E008º 17´ 25´´
22:02 Parking brakes on
22:02 Block to Block Duration: 02:13
22:02 Final Fuel: 7356 Lbls
22:02 Spent Fuel: 24664 Lbls
22:02 Flight Length: 767 NM
22:02 TOD Land Length: 174 NM

Exportar CSV

Powered by Drupal - Modified by Danger4k